createdAt,value
2023-01-06T00:00:44.835Z,9.02
2023-01-06T00:02:47.580Z,8.98
2023-01-06T00:04:49.612Z,13.53
2023-01-06T00:06:51.558Z,7.30
2023-01-06T00:08:54.654Z,13.05
2023-01-06T00:10:56.577Z,11.07
2023-01-06T00:12:58.347Z,7.72
2023-01-06T00:15:00.051Z,6.80
2023-01-06T00:17:01.909Z,7.22
2023-01-06T00:19:03.856Z,9.40
2023-01-06T00:21:06.849Z,8.68
2023-01-06T00:23:08.734Z,8.50
2023-01-06T00:25:11.122Z,7.10
2023-01-06T00:27:12.835Z,5.90
2023-01-06T00:29:14.513Z,6.97
2023-01-06T00:31:17.308Z,9.25
2023-01-06T00:33:19.050Z,6.53
2023-01-06T00:35:20.868Z,7.45
2023-01-06T00:37:22.803Z,10.18
2023-01-06T00:39:24.497Z,6.65
2023-01-06T00:41:26.441Z,6.43
2023-01-06T00:43:28.240Z,6.38
2023-01-06T00:45:29.935Z,6.65
2023-01-06T00:47:31.669Z,6.45
2023-01-06T00:49:33.848Z,6.38
2023-01-06T00:51:37.910Z,6.40
2023-01-06T00:53:39.892Z,6.00
2023-01-06T00:55:41.703Z,6.15
2023-01-06T00:57:43.411Z,6.03
2023-01-06T00:59:45.145Z,7.00
2023-01-06T01:01:48.653Z,8.38
2023-01-06T01:05:52.098Z,6.05
2023-01-06T01:07:54.078Z,7.57
2023-01-06T01:09:55.786Z,6.13
2023-01-06T01:11:58.317Z,6.10
2023-01-06T01:14:00.594Z,6.40
2023-01-06T01:16:07.052Z,7.38
2023-01-06T01:18:09.068Z,6.70
2023-01-06T01:20:11.185Z,5.68
2023-01-06T01:22:12.915Z,6.75
2023-01-06T01:24:15.101Z,6.22
2023-01-06T01:26:16.826Z,6.28
2023-01-06T01:28:18.506Z,6.28
2023-01-06T01:30:20.369Z,6.88
2023-01-06T01:32:22.411Z,6.72
2023-01-06T01:34:24.745Z,6.20
2023-01-06T01:36:26.864Z,6.80
2023-01-06T01:38:28.720Z,6.63
2023-01-06T01:40:30.411Z,7.22
2023-01-06T01:42:32.259Z,9.23
2023-01-06T01:45:00.031Z,8.80
2023-01-06T01:47:02.007Z,7.03
2023-01-06T01:49:17.021Z,6.18
2023-01-06T01:51:25.186Z,6.60
2023-01-06T01:53:34.433Z,7.07
2023-01-06T01:55:38.234Z,6.78
2023-01-06T01:57:47.065Z,6.80
2023-01-06T01:59:48.944Z,6.90
2023-01-06T02:01:51.487Z,6.63
2023-01-06T02:03:53.650Z,7.15
2023-01-06T02:06:04.683Z,6.45
2023-01-06T02:08:30.613Z,7.43
2023-01-06T02:10:32.559Z,5.20
2023-01-06T02:12:35.789Z,5.78
2023-01-06T02:14:37.465Z,5.50
2023-01-06T02:17:14.379Z,5.43
2023-01-06T02:19:21.762Z,5.45
2023-01-06T02:21:53.151Z,6.30
2023-01-06T02:24:20.875Z,6.85
2023-01-06T02:26:25.213Z,5.63
2023-01-06T02:29:17.896Z,5.57
2023-01-06T02:31:50.379Z,5.38
2023-01-06T02:34:13.359Z,5.97
2023-01-06T02:36:24.041Z,4.40
2023-01-06T02:38:34.500Z,5.03
2023-01-06T02:40:58.568Z,6.57
2023-01-06T02:43:22.649Z,6.28
2023-01-06T02:45:42.216Z,6.05
2023-01-06T02:47:56.127Z,4.95
2023-01-06T02:50:00.570Z,5.60
2023-01-06T02:52:25.060Z,6.68
2023-01-06T02:54:58.604Z,5.75
2023-01-06T02:57:16.426Z,5.28
2023-01-06T02:59:27.086Z,5.65
2023-01-06T03:01:34.585Z,5.20
2023-01-06T03:03:39.867Z,5.70
2023-01-06T03:05:45.377Z,5.80
2023-01-06T03:07:48.491Z,5.60
2023-01-06T03:09:53.217Z,6.15
2023-01-06T03:11:54.982Z,9.68
2023-01-06T03:14:04.058Z,12.52
2023-01-06T03:16:06.905Z,38.97
2023-01-06T03:18:08.969Z,43.47
2023-01-06T03:20:15.408Z,15.77
2023-01-06T03:22:18.180Z,9.25
2023-01-06T03:24:20.208Z,19.70
2023-01-06T03:26:24.142Z,16.15
2023-01-06T03:28:25.914Z,17.23
2023-01-06T03:30:32.603Z,12.65
2023-01-06T03:32:34.365Z,11.73
2023-01-06T03:34:57.015Z,7.13
2023-01-06T03:37:07.541Z,7.20
2023-01-06T03:39:18.322Z,7.43
2023-01-06T03:41:29.292Z,8.93
2023-01-06T03:43:44.389Z,7.15
2023-01-06T03:45:55.119Z,6.25
2023-01-06T03:48:09.684Z,13.93
2023-01-06T03:50:23.333Z,7.72
2023-01-06T03:52:31.936Z,9.85
2023-01-06T03:55:03.318Z,10.63
2023-01-06T03:57:15.867Z,5.40
2023-01-06T03:59:21.403Z,7.95
2023-01-06T04:01:24.467Z,18.67
2023-01-06T04:03:26.577Z,6.20
2023-01-06T04:05:29.214Z,5.38
2023-01-06T04:07:31.066Z,8.88
2023-01-06T04:09:32.793Z,14.55
2023-01-06T04:11:35.065Z,9.30
2023-01-06T04:13:36.911Z,12.27
2023-01-06T04:15:38.591Z,17.77
2023-01-06T04:17:41.493Z,17.33
2023-01-06T04:19:43.345Z,12.60
2023-01-06T04:21:45.058Z,12.48
2023-01-06T04:23:46.879Z,12.90
2023-01-06T04:25:48.763Z,8.52
2023-01-06T04:27:50.628Z,7.63
2023-01-06T04:29:52.344Z,7.63
2023-01-06T04:31:54.032Z,6.15
2023-01-06T04:33:55.784Z,5.90
2023-01-06T04:35:57.655Z,6.03
2023-01-06T04:38:02.402Z,7.70
2023-01-06T04:40:04.580Z,12.02
2023-01-06T04:42:06.531Z,9.25
2023-01-06T04:44:08.302Z,6.30
2023-01-06T04:46:10.139Z,5.00
2023-01-06T04:48:12.568Z,6.38
2023-01-06T04:50:14.621Z,9.90
2023-01-06T04:52:16.465Z,9.27
2023-01-06T04:54:24.263Z,9.57
2023-01-06T04:56:26.975Z,9.25
2023-01-06T04:58:28.749Z,16.67
2023-01-06T05:00:30.649Z,13.82
2023-01-06T05:02:32.421Z,14.50
2023-01-06T05:04:43.346Z,13.38
2023-01-06T05:06:49.068Z,6.05
2023-01-06T05:08:51.126Z,7.35
2023-01-06T05:11:00.219Z,10.32
2023-01-06T05:13:02.081Z,17.25
2023-01-06T05:15:04.330Z,8.90
2023-01-06T05:17:06.024Z,9.60
2023-01-06T05:19:07.779Z,6.88
2023-01-06T05:21:09.727Z,5.78
2023-01-06T05:23:11.427Z,5.72
2023-01-06T05:25:13.356Z,9.23
2023-01-06T05:27:15.250Z,6.63
2023-01-06T05:29:17.099Z,7.10
2023-01-06T05:31:18.979Z,5.85
2023-01-06T05:33:20.903Z,8.10
2023-01-06T05:35:22.570Z,5.72
2023-01-06T05:37:24.279Z,7.63
2023-01-06T05:39:26.152Z,11.35
2023-01-06T05:41:27.885Z,6.20
2023-01-06T05:43:30.289Z,6.75
2023-01-06T05:45:32.249Z,7.13
2023-01-06T05:47:34.001Z,5.97
2023-01-06T05:49:35.954Z,6.28
2023-01-06T05:51:37.621Z,5.75
2023-01-06T05:53:41.928Z,6.47
2023-01-06T05:55:44.073Z,5.95
2023-01-06T05:57:45.931Z,6.55
2023-01-06T05:59:47.957Z,4.32
2023-01-06T06:01:49.787Z,9.40
2023-01-06T06:03:53.426Z,5.60
2023-01-06T06:07:56.963Z,5.43
2023-01-06T06:09:58.919Z,5.50
2023-01-06T06:12:00.592Z,4.45
2023-01-06T06:14:02.325Z,6.20
2023-01-06T06:16:09.227Z,4.82
2023-01-06T06:18:10.964Z,5.72
2023-01-06T06:20:12.784Z,9.05
2023-01-06T06:22:14.465Z,14.77
2023-01-06T06:24:16.190Z,13.00
2023-01-06T06:26:17.888Z,6.70
2023-01-06T06:28:19.574Z,6.88
2023-01-06T06:30:21.272Z,6.50
2023-01-06T06:32:23.129Z,4.57
2023-01-06T06:34:24.896Z,5.28
2023-01-06T06:36:27.464Z,5.60
2023-01-06T06:38:29.812Z,8.57
2023-01-06T06:40:31.551Z,6.05
2023-01-06T06:42:33.329Z,5.65
2023-01-06T06:44:35.086Z,8.07
2023-01-06T06:46:36.850Z,8.63
2023-01-06T06:48:38.803Z,5.60
2023-01-06T06:50:40.707Z,4.97
2023-01-06T06:52:42.515Z,3.90
2023-01-06T06:54:44.232Z,4.68
2023-01-06T06:56:45.955Z,7.50
2023-01-06T06:58:48.486Z,4.35
2023-01-06T07:00:50.212Z,8.80
2023-01-06T07:02:52.239Z,7.50
2023-01-06T07:04:54.067Z,6.65
2023-01-06T07:06:57.008Z,6.45
2023-01-06T07:08:58.762Z,6.22
2023-01-06T07:11:00.908Z,5.40
2023-01-06T07:13:04.348Z,4.68
2023-01-06T07:15:07.499Z,5.88
2023-01-06T07:17:09.232Z,6.20
2023-01-06T07:19:10.941Z,19.52
2023-01-06T07:21:12.737Z,12.23
2023-01-06T07:23:14.835Z,9.48
2023-01-06T07:25:16.526Z,9.80
2023-01-06T07:27:18.413Z,10.82
2023-01-06T07:29:20.190Z,21.17
2023-01-06T07:31:21.885Z,6.88
2023-01-06T07:33:24.013Z,22.70
2023-01-06T07:35:25.852Z,37.80
2023-01-06T07:37:27.569Z,44.90
2023-01-06T07:39:29.331Z,49.88
2023-01-06T07:41:32.266Z,45.25
2023-01-06T07:43:33.929Z,29.38
2023-01-06T07:45:36.217Z,24.15
2023-01-06T07:47:38.120Z,19.70
2023-01-06T07:49:39.791Z,16.02
2023-01-06T07:51:41.550Z,10.48
2023-01-06T07:53:43.614Z,7.50
2023-01-06T07:55:54.573Z,5.35
2023-01-06T07:57:56.639Z,5.47
2023-01-06T07:59:58.527Z,4.55
2023-01-06T08:02:00.344Z,4.30
2023-01-06T08:04:02.445Z,4.50
2023-01-06T08:06:11.532Z,4.85
2023-01-06T08:08:13.230Z,22.15
2023-01-06T08:10:15.088Z,7.22
2023-01-06T08:12:17.468Z,4.90
2023-01-06T08:14:19.154Z,5.03
2023-01-06T08:16:20.978Z,123.85
2023-01-06T08:18:22.901Z,10.13
2023-01-06T08:20:24.655Z,9.13
2023-01-06T08:22:26.501Z,6.03
2023-01-06T08:24:28.484Z,40.70
2023-01-06T08:26:30.170Z,12.25
2023-01-06T08:28:32.241Z,18.05
2023-01-06T08:30:33.987Z,10.07
2023-01-06T08:32:35.664Z,99.78
2023-01-06T08:34:37.488Z,30.38
2023-01-06T08:36:39.861Z,16.05
2023-01-06T08:38:41.844Z,8.40
2023-01-06T08:40:44.000Z,9.02
2023-01-06T08:42:45.678Z,15.73
2023-01-06T08:44:47.748Z,7.50
2023-01-06T08:46:49.768Z,31.15
2023-01-06T08:48:51.577Z,13.77
2023-01-06T08:50:53.387Z,11.77
2023-01-06T08:52:55.145Z,7.40
2023-01-06T08:54:56.965Z,7.32
2023-01-06T08:56:58.656Z,7.07
2023-01-06T08:59:02.507Z,51.40
2023-01-06T09:01:04.388Z,15.80
2023-01-06T09:03:06.180Z,42.50
2023-01-06T09:05:08.391Z,6.75
2023-01-06T09:07:10.234Z,10.00
2023-01-06T09:09:13.043Z,11.88
2023-01-06T09:11:16.121Z,48.33
2023-01-06T09:13:18.304Z,6.07
2023-01-06T09:15:20.001Z,5.88
2023-01-06T09:17:23.362Z,24.38
2023-01-06T09:19:25.139Z,37.15
2023-01-06T09:21:26.886Z,14.40
2023-01-06T09:23:28.842Z,20.48
2023-01-06T09:25:30.553Z,10.85
2023-01-06T09:27:32.275Z,32.03
2023-01-06T09:29:34.030Z,11.85
2023-01-06T09:31:35.983Z,12.13
2023-01-06T09:33:37.878Z,16.20
2023-01-06T09:35:39.747Z,9.85
2023-01-06T09:37:41.568Z,7.40
2023-01-06T09:39:43.291Z,6.55
2023-01-06T09:42:03.915Z,5.88
2023-01-06T09:44:33.802Z,13.30
2023-01-06T09:46:38.935Z,12.05
2023-01-06T09:48:54.061Z,7.07
2023-01-06T09:51:03.852Z,6.07
2023-01-06T09:53:28.960Z,8.52
2023-01-06T09:55:33.561Z,11.00
2023-01-06T09:58:06.834Z,8.68
2023-01-06T10:00:15.951Z,7.25
2023-01-06T10:02:24.524Z,10.75
2023-01-06T10:04:28.935Z,15.90
2023-01-06T10:06:51.169Z,9.05
2023-01-06T10:09:05.603Z,9.43
2023-01-06T10:11:35.194Z,8.00
2023-01-06T10:14:01.113Z,10.43
2023-01-06T10:16:10.264Z,8.65
2023-01-06T10:18:24.010Z,7.50
2023-01-06T10:20:34.355Z,7.15
2023-01-06T10:23:17.752Z,8.35
2023-01-06T10:25:22.698Z,7.03
2023-01-06T10:27:53.863Z,6.85
2023-01-06T10:29:56.547Z,5.20
2023-01-06T10:32:02.838Z,6.93
2023-01-06T10:34:34.429Z,5.53
2023-01-06T10:36:45.342Z,6.00
2023-01-06T10:38:51.098Z,6.32
2023-01-06T10:40:55.762Z,8.52
2023-01-06T10:43:04.384Z,10.00
2023-01-06T10:45:11.935Z,10.98
2023-01-06T10:47:23.061Z,8.40
2023-01-06T10:49:24.937Z,9.25
2023-01-06T10:51:38.836Z,8.07
2023-01-06T10:53:40.695Z,8.98
2023-01-06T10:55:56.036Z,7.57
2023-01-06T10:58:05.471Z,9.60
2023-01-06T11:00:18.084Z,9.95
2023-01-06T11:02:23.323Z,8.15
2023-01-06T11:04:27.241Z,8.65
2023-01-06T11:06:30.313Z,6.20
2023-01-06T11:08:32.839Z,7.57
2023-01-06T11:10:38.559Z,6.22
2023-01-06T11:12:46.058Z,6.47
2023-01-06T11:15:19.860Z,7.10
2023-01-06T11:17:23.580Z,7.37
2023-01-06T11:19:35.063Z,8.15
2023-01-06T11:21:46.672Z,6.88
2023-01-06T11:23:49.091Z,8.52
2023-01-06T11:26:01.334Z,12.15
2023-01-06T11:28:13.397Z,9.40
2023-01-06T11:30:29.054Z,7.53
2023-01-06T11:32:30.847Z,8.35
2023-01-06T11:34:33.457Z,7.00
2023-01-06T11:36:35.345Z,10.02
2023-01-06T11:39:08.185Z,8.55
2023-01-06T11:41:11.545Z,7.38
2023-01-06T11:43:15.988Z,23.48
2023-01-06T11:45:54.865Z,23.80
2023-01-06T11:47:57.311Z,12.10
2023-01-06T11:50:01.447Z,11.77
2023-01-06T11:52:19.626Z,10.23
2023-01-06T11:54:28.889Z,11.77
2023-01-06T11:56:30.740Z,12.00
2023-01-06T11:58:44.433Z,8.73
2023-01-06T12:01:12.105Z,7.95
2023-01-06T12:03:19.978Z,10.85
2023-01-06T12:05:32.410Z,40.80
2023-01-06T12:07:56.493Z,13.15
2023-01-06T12:10:09.533Z,8.57
2023-01-06T12:12:15.153Z,11.25
2023-01-06T12:14:46.094Z,12.32
2023-01-06T12:17:06.569Z,24.98
2023-01-06T12:19:18.335Z,20.10
2023-01-06T12:21:30.478Z,27.45
2023-01-06T12:23:40.235Z,21.27
2023-01-06T12:25:45.432Z,14.98
2023-01-06T12:28:06.127Z,20.08
2023-01-06T12:30:19.778Z,29.58
2023-01-06T12:32:25.266Z,69.53
2023-01-06T12:34:33.698Z,30.73
2023-01-06T12:36:41.207Z,52.10
2023-01-06T12:38:57.423Z,26.95
2023-01-06T12:41:07.418Z,26.52
2023-01-06T12:43:17.410Z,24.33
2023-01-06T12:45:57.098Z,85.30
2023-01-06T12:48:03.737Z,30.08
2023-01-06T12:50:20.994Z,59.95
2023-01-06T12:52:30.692Z,27.13
2023-01-06T12:54:34.727Z,34.85
2023-01-06T12:56:59.467Z,28.73
2023-01-06T12:59:22.791Z,31.38
2023-01-06T13:01:36.555Z,22.30
2023-01-06T13:03:44.045Z,21.23
2023-01-06T13:06:11.635Z,27.95
2023-01-06T13:08:27.218Z,22.90
2023-01-06T13:10:35.492Z,16.38
2023-01-06T13:13:04.199Z,15.75
2023-01-06T13:15:27.301Z,16.25
2023-01-06T13:17:39.533Z,15.63
2023-01-06T13:19:59.060Z,16.55
2023-01-06T13:22:02.934Z,20.83
2023-01-06T13:24:23.514Z,24.33
2023-01-06T13:26:40.020Z,27.20
2023-01-06T13:29:13.818Z,24.13
2023-01-06T13:31:28.584Z,20.58
2023-01-06T13:33:55.262Z,17.50
2023-01-06T13:36:18.621Z,14.43
2023-01-06T13:38:35.301Z,18.20
2023-01-06T13:40:39.641Z,23.13
2023-01-06T13:42:43.909Z,19.55
2023-01-06T13:44:48.886Z,16.52
2023-01-06T13:46:54.112Z,15.23
2023-01-06T13:49:00.692Z,13.85
2023-01-06T13:51:05.521Z,13.35
2023-01-06T13:53:13.494Z,15.40
2023-01-06T13:55:32.659Z,15.35
2023-01-06T13:57:37.672Z,14.48
2023-01-06T14:00:11.248Z,17.45
2023-01-06T14:02:34.808Z,16.00
2023-01-06T14:04:36.574Z,15.00
2023-01-06T14:06:39.935Z,13.90
2023-01-06T14:08:50.380Z,12.98
2023-01-06T14:10:58.852Z,12.60
2023-01-06T14:13:03.969Z,12.18
2023-01-06T14:15:21.777Z,13.95
2023-01-06T14:17:37.872Z,14.35
2023-01-06T14:19:40.477Z,11.65
2023-01-06T14:21:42.992Z,13.00
2023-01-06T14:23:54.539Z,15.35
2023-01-06T14:25:57.623Z,17.17
2023-01-06T14:27:59.303Z,69.85
2023-01-06T14:30:03.180Z,49.83
2023-01-06T14:32:08.676Z,99.07
2023-01-06T14:34:12.983Z,67.97
2023-01-06T14:36:17.234Z,100.68
2023-01-06T14:38:36.827Z,59.70
2023-01-06T14:40:53.472Z,27.83
2023-01-06T14:43:01.745Z,24.23
2023-01-06T14:45:17.954Z,18.27
2023-01-06T14:47:40.439Z,31.65
2023-01-06T14:49:47.028Z,137.63
2023-01-06T14:51:52.962Z,73.22
2023-01-06T14:54:29.262Z,37.40
2023-01-06T14:56:33.363Z,30.58
2023-01-06T14:58:36.630Z,21.20
2023-01-06T15:00:45.199Z,20.90
2023-01-06T15:02:50.464Z,53.08
2023-01-06T15:04:56.303Z,21.17
2023-01-06T15:06:59.175Z,18.23
2023-01-06T15:09:19.709Z,27.50
2023-01-06T15:11:32.233Z,33.05
2023-01-06T15:13:34.449Z,22.15
2023-01-06T15:15:36.457Z,25.63
2023-01-06T15:17:38.272Z,32.15
2023-01-06T15:19:43.942Z,22.88
2023-01-06T15:21:47.779Z,24.25
2023-01-06T15:23:52.024Z,25.77
2023-01-06T15:25:55.743Z,20.67
2023-01-06T15:27:57.715Z,32.78
2023-01-06T15:29:59.439Z,26.83
2023-01-06T15:32:02.305Z,23.45
2023-01-06T15:34:11.647Z,21.45
2023-01-06T15:36:22.083Z,30.08
2023-01-06T15:38:31.110Z,24.75
2023-01-06T15:40:33.192Z,22.15
2023-01-06T15:42:35.305Z,18.98
2023-01-06T15:44:38.617Z,25.80
2023-01-06T15:46:42.051Z,29.10
2023-01-06T15:48:46.145Z,29.52
2023-01-06T15:54:27.871Z,27.60
2023-01-06T15:56:31.470Z,29.58
2023-01-06T16:00:44.361Z,32.58
2023-01-06T16:02:48.262Z,35.47
2023-01-06T16:04:50.013Z,30.10
2023-01-06T16:06:51.748Z,36.75
2023-01-06T16:08:53.566Z,27.38
2023-01-06T16:11:22.731Z,31.20
2023-01-06T16:13:28.848Z,31.02
2023-01-06T16:15:35.095Z,27.70
2023-01-06T16:17:46.084Z,26.88
2023-01-06T16:19:53.922Z,36.72
2023-01-06T16:21:56.595Z,30.88
2023-01-06T16:24:00.967Z,41.57
2023-01-06T16:26:10.695Z,36.15
2023-01-06T16:28:21.007Z,28.35
2023-01-06T16:30:27.883Z,30.67
2023-01-06T16:32:38.604Z,29.02
2023-01-06T16:34:49.723Z,32.10
2023-01-06T16:36:55.047Z,36.72
2023-01-06T16:38:56.734Z,40.25
2023-01-06T16:40:58.434Z,31.02
2023-01-06T16:43:02.261Z,36.33
2023-01-06T16:45:09.011Z,41.05
2023-01-06T16:47:10.670Z,48.38
2023-01-06T16:49:12.860Z,49.78
2023-01-06T16:51:18.675Z,49.85
2023-01-06T16:53:22.650Z,40.25
2023-01-06T16:57:26.281Z,42.80
2023-01-06T16:59:33.886Z,46.85
2023-01-06T17:01:35.824Z,45.28
2023-01-06T17:03:38.663Z,38.50
2023-01-06T17:05:40.377Z,41.97
2023-01-06T17:07:42.212Z,39.92
2023-01-06T17:09:43.996Z,42.22
2023-01-06T17:11:45.899Z,35.47
2023-01-06T17:14:03.154Z,34.72
2023-01-06T17:16:11.170Z,37.97
2023-01-06T17:18:20.958Z,40.25
2023-01-06T17:20:22.822Z,33.15
2023-01-06T17:22:30.070Z,32.72
2023-01-06T17:24:31.838Z,28.73
2023-01-06T17:26:34.214Z,32.75
2023-01-06T17:28:36.804Z,29.25
2023-01-06T17:30:39.110Z,33.92
2023-01-06T17:32:43.503Z,33.72
2023-01-06T17:34:45.276Z,40.30
2023-01-06T17:36:49.618Z,40.42
2023-01-06T17:38:52.271Z,51.75
2023-01-06T17:40:54.031Z,34.17
2023-01-06T17:43:20.149Z,48.42
2023-01-06T17:45:26.752Z,141.27
2023-01-06T17:47:35.370Z,71.43
2023-01-06T17:49:37.100Z,80.05
2023-01-06T17:51:40.184Z,51.30
2023-01-06T17:53:42.159Z,61.38
2023-01-06T17:55:48.805Z,89.18
2023-01-06T17:57:51.274Z,53.08
2023-01-06T17:59:56.684Z,78.60
2023-01-06T18:01:58.416Z,72.80
2023-01-06T18:04:00.645Z,38.63
2023-01-06T18:06:23.525Z,38.67
2023-01-06T18:08:26.999Z,64.93
2023-01-06T18:10:28.713Z,54.90
2023-01-06T18:12:30.561Z,35.63
2023-01-06T18:14:36.565Z,44.42
2023-01-06T18:16:38.798Z,32.08
2023-01-06T18:18:42.650Z,40.17
2023-01-06T18:21:26.213Z,42.20
2023-01-06T18:23:28.034Z,56.25
2023-01-06T18:25:29.826Z,34.88
2023-01-06T18:27:34.709Z,52.15
2023-01-06T18:29:38.851Z,45.28
2023-01-06T18:31:41.350Z,115.80
2023-01-06T18:33:43.265Z,53.20
2023-01-06T18:35:44.951Z,64.40
2023-01-06T18:37:47.079Z,43.28
2023-01-06T18:39:52.224Z,38.05
2023-01-06T18:42:34.550Z,40.20
2023-01-06T18:44:36.835Z,36.00
2023-01-06T18:46:41.545Z,33.95
2023-01-06T18:48:44.662Z,36.75
2023-01-06T18:50:49.522Z,39.17
2023-01-06T18:52:53.374Z,44.28
2023-01-06T18:54:55.358Z,44.90
2023-01-06T18:56:57.079Z,40.17
2023-01-06T18:58:59.450Z,34.65
2023-01-06T19:01:11.348Z,43.10
2023-01-06T19:03:39.173Z,38.72
2023-01-06T19:05:42.013Z,51.80
2023-01-06T19:07:43.825Z,46.72
2023-01-06T19:09:49.980Z,46.63
2023-01-06T19:12:19.333Z,46.83
2023-01-06T19:14:21.039Z,43.97
2023-01-06T19:16:30.477Z,35.42
2023-01-06T19:18:34.085Z,41.35
2023-01-06T19:25:23.704Z,46.33
2023-01-06T19:27:33.486Z,39.83
2023-01-06T19:29:35.208Z,42.00
2023-01-06T19:31:37.120Z,48.08
2023-01-06T19:33:43.938Z,40.35
2023-01-06T19:35:46.429Z,41.47
2023-01-06T19:37:49.186Z,44.38
2023-01-06T19:39:57.229Z,47.83
2023-01-06T19:42:23.712Z,45.75
2023-01-06T19:44:34.070Z,42.08
2023-01-06T19:46:38.426Z,44.17
2023-01-06T19:48:41.491Z,46.28
2023-01-06T19:50:43.162Z,42.03
2023-01-06T19:52:45.114Z,47.10
2023-01-06T19:54:46.799Z,48.78
2023-01-06T19:56:50.055Z,45.65
2023-01-06T19:59:01.420Z,42.47
2023-01-06T20:01:03.410Z,39.97
2023-01-06T20:03:31.362Z,38.90
2023-01-06T20:05:33.134Z,38.45
2023-01-06T20:07:34.826Z,41.45
2023-01-06T20:09:36.651Z,38.55
2023-01-06T20:11:38.464Z,36.92
2023-01-06T20:13:40.291Z,31.52
2023-01-06T20:15:43.719Z,32.15
2023-01-06T20:17:45.405Z,38.25
2023-01-06T20:19:47.130Z,41.65
2023-01-06T20:21:48.903Z,44.60
2023-01-06T20:23:50.587Z,40.85
2023-01-06T20:25:52.745Z,36.30
2023-01-06T20:27:54.517Z,34.58
2023-01-06T20:29:56.191Z,73.22
2023-01-06T20:31:58.059Z,34.95
2023-01-06T20:34:00.196Z,44.63
2023-01-06T20:36:01.982Z,48.38
2023-01-06T20:38:04.044Z,47.05
2023-01-06T20:40:06.815Z,38.30
2023-01-06T20:42:08.906Z,40.57
2023-01-06T20:44:10.726Z,42.17
2023-01-06T20:46:12.586Z,39.67
2023-01-06T20:48:14.351Z,42.55
2023-01-06T20:50:16.280Z,33.08
2023-01-06T20:52:18.340Z,49.40
2023-01-06T20:54:20.036Z,39.83
2023-01-06T20:56:22.055Z,40.40
2023-01-06T20:58:24.240Z,45.72
2023-01-06T21:00:26.115Z,37.15
2023-01-06T21:02:28.546Z,34.35
2023-01-06T21:04:30.378Z,40.22
2023-01-06T21:06:32.067Z,64.00
2023-01-06T21:08:33.821Z,54.17
2023-01-06T21:10:35.699Z,41.65
2023-01-06T21:12:37.452Z,36.50
2023-01-06T21:14:39.252Z,38.30
2023-01-06T21:16:41.050Z,41.97
2023-01-06T21:18:42.777Z,43.53
2023-01-06T21:20:44.473Z,37.85
2023-01-06T21:22:46.304Z,52.63
2023-01-06T21:24:48.087Z,54.42
2023-01-06T21:26:49.967Z,52.70
2023-01-06T21:28:51.752Z,55.83
2023-01-06T21:30:53.527Z,52.65
2023-01-06T21:32:55.419Z,49.50
2023-01-06T21:34:57.292Z,47.03
2023-01-06T21:36:59.020Z,48.58
2023-01-06T21:39:01.173Z,47.40
2023-01-06T21:41:03.178Z,46.28
2023-01-06T21:43:04.970Z,49.42
2023-01-06T21:45:07.645Z,43.63
2023-01-06T21:47:09.895Z,46.40
2023-01-06T21:49:11.624Z,41.45
2023-01-06T21:51:13.556Z,50.13
2023-01-06T21:53:15.523Z,58.25
2023-01-06T21:55:17.405Z,49.70
2023-01-06T21:57:19.236Z,38.35
2023-01-06T21:59:21.177Z,35.40
2023-01-06T22:01:23.123Z,43.20
2023-01-06T22:03:26.245Z,55.85
2023-01-06T22:05:28.768Z,56.13
2023-01-06T22:07:31.018Z,53.97
2023-01-06T22:09:32.935Z,50.45
2023-01-06T22:11:36.909Z,56.72
2023-01-06T22:13:40.717Z,82.60
2023-01-06T22:15:43.290Z,104.63
2023-01-06T22:17:45.081Z,74.13
2023-01-06T22:19:47.869Z,53.65
2023-01-06T22:21:49.860Z,61.95
2023-01-06T22:23:52.440Z,75.22
2023-01-06T22:25:54.156Z,68.15
2023-01-06T22:27:55.934Z,51.72
2023-01-06T22:29:57.662Z,56.53
2023-01-06T22:32:03.452Z,49.42
2023-01-06T22:34:06.911Z,49.00
2023-01-06T22:36:08.954Z,48.92
2023-01-06T22:38:10.707Z,48.97
2023-01-06T22:40:13.825Z,47.45
2023-01-06T22:42:15.801Z,48.13
2023-01-06T22:44:17.526Z,48.67
2023-01-06T22:46:19.378Z,60.53
2023-01-06T22:48:21.414Z,64.60
2023-01-06T22:50:23.273Z,71.00
2023-01-06T22:52:25.257Z,66.03
2023-01-06T22:54:27.139Z,60.20
2023-01-06T22:56:28.826Z,55.13
2023-01-06T22:58:32.537Z,83.18
2023-01-06T23:00:34.348Z,76.43
2023-01-06T23:02:36.220Z,84.65
2023-01-06T23:04:38.143Z,84.10
2023-01-06T23:06:39.919Z,83.72
2023-01-06T23:08:58.442Z,80.90
2023-01-06T23:11:04.433Z,84.78
2023-01-06T23:13:06.168Z,78.35
2023-01-06T23:15:08.976Z,79.88
2023-01-06T23:17:11.877Z,77.00
2023-01-06T23:19:15.961Z,89.97
2023-01-06T23:21:22.669Z,96.55
2023-01-06T23:23:24.485Z,102.18
2023-01-06T23:25:26.967Z,95.20
2023-01-06T23:27:30.485Z,93.57
2023-01-06T23:29:33.445Z,93.47
2023-01-06T23:31:44.919Z,91.60
2023-01-06T23:33:48.879Z,85.38
2023-01-06T23:35:50.795Z,84.28
2023-01-06T23:37:52.600Z,107.68
2023-01-06T23:39:54.286Z,94.72
2023-01-06T23:41:56.060Z,84.88
2023-01-06T23:43:58.206Z,91.40
2023-01-06T23:46:10.853Z,85.88
2023-01-06T23:48:12.513Z,82.72
2023-01-06T23:50:14.367Z,84.18
2023-01-06T23:52:16.082Z,86.90
2023-01-06T23:54:18.016Z,81.78
2023-01-06T23:56:23.247Z,81.93
2023-01-06T23:58:26.091Z,78.78
